Time;durP1;ratioP1;P1;durP2;ratioP2;P2;SDS_P1;SDS_P2;PMS_P1;PMS_P2;Temp;Humidity;BMP_temperature;BMP_pressure;BME280_temperature;BME280_humidity;BME280_pressure;Samples;Min_cycle;Max_cycle;Signal;HPM_P1;HPM_P2
2023/01/01 00:02:12;;;;;;;7.47;5.57;;;;;;;-143.84;57.22;45123.34;5094724;28;20425;-78
2023/01/01 00:04:39;;;;;;;8.07;5.90;;;;;;;-143.84;56.79;45104.28;5094501;28;20434;-78
2023/01/01 00:07:07;;;;;;;6.23;5.60;;;;;;;-143.84;56.88;45130.94;5094463;28;20460;-78
2023/01/01 00:12:18;;;;;;;9.43;6.57;;;;;;;-143.84;56.37;45108.09;5094399;28;20414;-78
2023/01/01 00:14:45;;;;;;;7.97;5.73;;;;;;;-143.84;56.06;45127.13;5093999;28;20486;-77
2023/01/01 00:17:13;;;;;;;6.37;5.77;;;;;;;-143.84;56.23;45108.09;5094190;28;20855;-78
2023/01/01 00:19:41;;;;;;;6.17;5.57;;;;;;;-143.84;56.37;45104.28;5094355;28;20434;-78
2023/01/01 00:22:08;;;;;;;9.13;5.40;;;;;;;-143.84;55.85;45134.75;5094281;28;20435;-78
2023/01/01 00:24:37;;;;;;;7.47;5.73;;;;;;;-143.84;56.06;45136.66;5093872;28;20486;-78
2023/01/01 00:27:04;;;;;;;7.17;5.47;;;;;;;-143.84;55.38;45117.63;5093281;28;20920;-78
2023/01/01 00:29:32;;;;;;;6.17;5.57;;;;;;;-143.84;55.29;45119.53;5093347;28;20429;-78
2023/01/01 00:31:59;;;;;;;5.83;5.23;;;;;;;-143.84;55.23;45117.63;5093734;28;20439;-77
2023/01/01 00:34:28;;;;;;;5.90;5.13;;;;;;;-143.84;55.20;45110.00;5091934;28;20477;-78
2023/01/01 00:36:55;;;;;;;6.00;5.07;;;;;;;-143.84;55.52;45090.97;5091093;28;21098;-78
2023/01/01 00:39:22;;;;;;;7.37;5.27;;;;;;;-143.84;55.16;45117.63;5093973;28;20911;-78
2023/01/01 00:41:49;;;;;;;5.93;5.37;;;;;;;-143.84;55.02;45102.38;5093903;28;20429;-78
2023/01/01 00:44:17;;;;;;;6.77;5.13;;;;;;;-143.84;54.69;45117.63;5093458;28;21139;-78
2023/01/01 00:46:44;;;;;;;6.10;4.90;;;;;;;-143.84;54.62;45106.19;5093992;28;20782;-78
2023/01/01 00:49:11;;;;;;;6.40;5.57;;;;;;;-143.84;54.63;45119.53;5094041;28;20500;-78
2023/01/01 00:51:40;;;;;;;6.10;5.30;;;;;;;-143.84;54.39;45121.44;5093635;28;20432;-78
2023/01/01 00:54:07;;;;;;;5.90;5.10;;;;;;;-143.84;55.14;45121.44;5093530;28;20477;-78
2023/01/01 00:56:34;;;;;;;8.33;6.20;;;;;;;-143.84;54.94;45089.06;5093666;28;20492;-78
2023/01/01 00:59:01;;;;;;;7.83;5.80;;;;;;;-143.84;54.89;45100.47;5093321;28;20433;-78
2023/01/01 01:01:28;;;;;;;7.50;5.27;;;;;;;-143.84;54.94;45111.91;5093285;28;20436;-78
2023/01/01 01:03:55;;;;;;;9.67;7.20;;;;;;;-143.84;54.73;45125.22;5093361;28;20422;-78
2023/01/01 01:06:23;;;;;;;7.50;5.67;;;;;;;-143.84;54.92;45110.00;5093567;28;20526;-78
2023/01/01 01:08:52;;;;;;;5.53;5.03;;;;;;;-143.84;54.79;45104.28;5093122;28;20493;-78
2023/01/01 01:11:21;;;;;;;4.93;4.53;;;;;;;-143.84;54.69;45129.03;5092838;28;21052;-78
2023/01/01 01:13:50;;;;;;;5.73;5.23;;;;;;;-143.84;54.46;45104.28;5092988;28;20488;-78
2023/01/01 01:16:20;;;;;;;8.70;5.23;;;;;;;-143.84;54.63;45119.53;5093135;28;20414;-78
2023/01/01 01:18:49;;;;;;;5.37;4.87;;;;;;;-143.84;54.40;45106.19;5093257;28;21176;-77
2023/01/01 01:21:19;;;;;;;5.83;5.27;;;;;;;-143.84;54.04;45125.22;5092908;28;20436;-78
2023/01/01 01:23:47;;;;;;;10.00;5.43;;;;;;;-143.84;54.01;45094.78;5092920;28;20500;-78
2023/01/01 01:26:17;;;;;;;8.13;7.17;;;;;;;-143.84;53.76;45115.72;5092940;28;20449;-78
2023/01/01 01:28:45;;;;;;;5.93;5.43;;;;;;;-143.84;53.51;45113.81;5092883;28;20428;-78
2023/01/01 01:31:13;;;;;;;5.80;5.10;;;;;;;-143.84;53.53;45102.38;5092815;28;20495;-78
2023/01/01 01:33:40;;;;;;;5.90;5.30;;;;;;;-143.84;53.45;45130.94;5093118;28;20440;-83
2023/01/01 01:36:08;;;;;;;5.13;4.63;;;;;;;-143.84;53.72;45123.34;5092598;28;20536;-83
2023/01/01 01:38:35;;;;;;;6.87;6.27;;;;;;;-143.84;53.76;45090.97;5092531;28;20446;-83
2023/01/01 01:41:03;;;;;;;7.70;6.90;;;;;;;-143.84;53.25;45119.53;5092328;28;20426;-83
2023/01/01 01:43:50;;;;;;;8.43;5.40;;;;;;;-143.84;52.92;45125.22;5092511;28;20431;-83
2023/01/01 01:46:22;;;;;;;10.77;6.90;;;;;;;-143.84;53.34;45094.78;5092568;28;21117;-83
2023/01/01 01:48:51;;;;;;;10.33;5.50;;;;;;;-143.84;52.81;45136.66;5092402;28;20435;-83
2023/01/01 01:51:22;;;;;;;5.77;5.27;;;;;;;-143.84;52.64;45113.81;5092188;28;20946;-83
2023/01/01 01:53:54;;;;;;;5.67;4.73;;;;;;;-143.84;52.67;45125.22;5092520;28;20448;-83
2023/01/01 01:56:28;;;;;;;5.00;4.50;;;;;;;-143.84;52.55;45142.38;5092489;28;20467;-83
2023/01/01 01:58:57;;;;;;;5.40;4.90;;;;;;;-143.84;52.28;45098.56;5092520;28;20434;-83
2023/01/01 02:01:25;;;;;;;7.40;4.77;;;;;;;-143.84;52.38;45110.00;5092174;28;20446;-83
2023/01/01 02:03:57;;;;;;;5.00;4.60;;;;;;;-143.84;52.51;45104.28;5092211;28;20443;-83
2023/01/01 02:06:25;;;;;;;5.70;5.20;;;;;;;-143.84;52.07;45090.97;5092287;28;20509;-83
2023/01/01 02:08:53;;;;;;;5.40;4.90;;;;;;;-143.84;52.24;45121.44;5092025;28;20503;-83
2023/01/01 02:11:20;;;;;;;5.13;4.47;;;;;;;-143.84;51.89;45115.72;5091867;28;20999;-83
2023/01/01 02:13:48;;;;;;;6.47;4.90;;;;;;;-143.84;52.06;45081.44;5093629;28;20430;-82
2023/01/01 02:16:24;;;;;;;5.50;4.87;;;;;;;-143.84;52.14;45117.63;5092593;28;20577;-78
2023/01/01 02:18:58;;;;;;;6.10;5.43;;;;;;;-143.84;52.13;45130.94;5092630;28;20430;-78
2023/01/01 02:21:31;;;;;;;5.27;4.10;;;;;;;-143.84;52.16;45096.66;5092333;28;20434;-78
2023/01/01 02:24:36;;;;;;;8.57;4.97;;;;;;;-143.84;52.04;45083.34;5091700;28;20999;-78
2023/01/01 02:27:08;;;;;;;5.83;5.00;;;;;;;-143.84;52.16;45148.09;5085090;28;20511;-78
2023/01/01 02:29:43;;;;;;;8.57;4.50;;;;;;;-143.84;51.94;45111.91;5089450;28;20456;-78
2023/01/01 02:32:15;;;;;;;4.90;4.50;;;;;;;-143.84;52.20;45113.81;5090485;28;20486;-78
2023/01/01 02:34:46;;;;;;;5.17;4.67;;;;;;;-143.84;51.93;45136.66;5092214;28;20471;-78
2023/01/01 02:37:19;;;;;;;12.20;8.97;;;;;;;-143.84;51.64;45125.22;5092162;28;20426;-77
2023/01/01 02:39:56;;;;;;;4.97;4.57;;;;;;;-143.84;51.00;45123.34;5091863;28;20442;-85
2023/01/01 02:42:27;;;;;;;4.93;4.50;;;;;;;-143.84;51.20;45119.53;5091940;28;20510;-84
2023/01/01 02:44:59;;;;;;;6.90;4.30;;;;;;;-143.84;50.45;45106.19;5092050;28;20491;-82
2023/01/01 02:47:27;;;;;;;4.80;4.00;;;;;;;-143.84;50.31;45123.34;5091891;28;21004;-81
2023/01/01 02:50:01;;;;;;;4.33;3.93;;;;;;;-143.84;49.71;45140.47;5091991;28;20464;-81
2023/01/01 02:53:02;;;;;;;7.10;4.63;;;;;;;-143.84;49.50;45113.81;5092152;28;20991;-81
2023/01/01 02:55:37;;;;;;;4.23;3.83;;;;;;;-143.84;49.28;45121.44;5095458;28;20481;-81
2023/01/01 03:00:59;;;;;;;6.50;4.07;;;;;;;-143.84;48.91;45115.72;5095632;28;20518;-81
2023/01/01 03:03:31;;;;;;;4.80;3.93;;;;;;;-143.84;49.00;45132.84;5095682;28;20437;-81
2023/01/01 03:06:22;;;;;;;4.90;3.83;;;;;;;-143.84;48.77;45113.81;5095753;28;20426;-81
2023/01/01 03:08:55;;;;;;;8.20;4.07;;;;;;;-143.84;48.68;45121.44;5095764;28;20437;-83
2023/01/01 03:11:25;;;;;;;3.47;3.17;;;;;;;-143.84;48.25;45096.66;5095176;28;20485;-82
2023/01/01 03:14:00;;;;;;;3.93;3.50;;;;;;;-143.84;48.37;45100.47;5095270;28;20442;-82
2023/01/01 03:16:34;;;;;;;3.43;3.13;;;;;;;-143.84;48.16;45123.34;5095425;28;20531;-82
2023/01/01 03:19:13;;;;;;;3.90;3.60;;;;;;;-143.84;48.24;45117.63;5095620;28;20507;-82
2023/01/01 03:21:49;;;;;;;3.83;3.50;;;;;;;-143.84;48.34;45127.13;5095109;28;20856;-82
2023/01/01 03:24:22;;;;;;;5.53;3.57;;;;;;;-143.84;48.31;45115.72;5095423;28;20428;-82
2023/01/01 03:26:54;;;;;;;6.07;4.50;;;;;;;-143.84;48.20;45102.38;5095101;28;20863;-82
2023/01/01 03:29:23;;;;;;;4.47;4.07;;;;;;;-143.84;48.16;45123.34;5095205;28;20425;-81
2023/01/01 03:31:55;;;;;;;6.10;3.93;;;;;;;-143.84;48.23;45106.19;5095294;28;20420;-82
2023/01/01 03:34:28;;;;;;;9.87;3.90;;;;;;;-143.84;47.88;45081.44;5094818;28;20443;-81
2023/01/01 03:36:59;;;;;;;3.87;3.57;;;;;;;-143.84;47.92;45108.09;5094915;28;20996;-81
2023/01/01 03:39:31;;;;;;;4.30;3.90;;;;;;;-143.84;48.20;45083.34;5095300;28;20470;-81
2023/01/01 03:42:08;;;;;;;3.97;3.67;;;;;;;-143.84;48.53;45129.03;5095056;28;20496;-81
2023/01/01 03:44:41;;;;;;;7.20;3.80;;;;;;;-143.84;48.44;45125.22;5094780;28;20442;-81
2023/01/01 03:47:09;;;;;;;8.17;4.43;;;;;;;-143.84;48.74;45092.88;5094814;28;20435;-81
2023/01/01 03:49:37;;;;;;;5.83;4.70;;;;;;;-143.84;48.80;45121.44;5095161;28;20778;-82
2023/01/01 03:52:19;;;;;;;4.87;3.90;;;;;;;-143.84;48.94;45102.38;5094812;28;20483;-81
2023/01/01 03:54:54;;;;;;;5.67;4.13;;;;;;;-143.84;48.88;45125.22;5094626;28;20481;-81
2023/01/01 03:57:26;;;;;;;5.03;3.80;;;;;;;-143.84;48.70;45098.56;5094575;28;20448;-81
2023/01/01 04:00:03;;;;;;;7.17;4.67;;;;;;;-143.84;48.88;45123.34;5094483;28;20918;-81
2023/01/01 04:02:37;;;;;;;4.00;3.70;;;;;;;-143.84;49.09;45115.72;5094830;28;20427;-81
2023/01/01 04:05:06;;;;;;;4.30;4.00;;;;;;;-143.84;49.28;45117.63;5094188;28;20882;-81
2023/01/01 04:07:34;;;;;;;4.37;3.77;;;;;;;-143.84;48.97;45098.56;5094449;28;20857;-81
2023/01/01 04:10:15;;;;;;;3.67;3.37;;;;;;;-143.84;49.70;45115.72;5094164;28;20485;-81
2023/01/01 04:12:45;;;;;;;4.90;4.40;;;;;;;-143.84;49.81;45125.22;5094387;28;20511;-81
2023/01/01 04:15:12;;;;;;;4.37;3.97;;;;;;;-143.84;49.74;45125.22;5094224;28;20465;-81
2023/01/01 04:17:41;;;;;;;4.40;4.00;;;;;;;-143.84;50.07;45129.03;5094207;28;20439;-81
2023/01/01 04:20:09;;;;;;;4.57;3.93;;;;;;;-143.84;50.31;45110.00;5094211;28;20464;-81
2023/01/01 04:22:36;;;;;;;4.50;4.00;;;;;;;-143.84;50.33;45125.22;5094517;28;20430;-81
2023/01/01 04:25:04;;;;;;;4.37;3.97;;;;;;;-143.84;50.26;45127.13;5096806;28;20494;-82
2023/01/01 04:27:32;;;;;;;4.33;4.03;;;;;;;-143.84;49.86;45096.66;5100310;28;20499;-82
2023/01/01 04:29:59;;;;;;;4.47;3.90;;;;;;;-143.84;50.52;45117.63;5100756;28;20410;-82
2023/01/01 04:32:26;;;;;;;5.60;3.93;;;;;;;-143.84;50.16;45123.34;5101233;28;21008;-82
2023/01/01 04:34:55;;;;;;;3.80;3.43;;;;;;;-143.84;50.30;45161.41;5100776;28;20478;-82
2023/01/01 04:37:22;;;;;;;6.87;3.83;;;;;;;-143.84;50.17;45110.00;5099943;28;20430;-82
2023/01/01 04:39:50;;;;;;;6.33;3.87;;;;;;;-143.84;50.39;45085.25;5100110;28;20439;-82
2023/01/01 04:42:17;;;;;;;4.27;3.53;;;;;;;-143.84;50.36;45113.81;5099550;28;20989;-82
2023/01/01 04:44:44;;;;;;;4.60;4.20;;;;;;;-143.84;50.02;45132.84;5099069;28;20457;-82
2023/01/01 04:47:11;;;;;;;4.03;3.70;;;;;;;-143.84;49.85;45115.72;5100232;28;20434;-82
2023/01/01 04:49:38;;;;;;;5.83;4.37;;;;;;;-143.84;49.84;45125.22;5100130;28;20468;-82
2023/01/01 04:52:07;;;;;;;4.47;4.07;;;;;;;-143.84;49.54;45146.19;5100265;28;20442;-82
2023/01/01 04:54:34;;;;;;;4.13;3.80;;;;;;;-143.84;49.54;45092.88;5099929;28;20437;-82
2023/01/01 04:57:01;;;;;;;5.53;4.40;;;;;;;-143.84;49.31;45115.72;5099866;28;20477;-82
2023/01/01 04:59:29;;;;;;;6.57;3.80;;;;;;;-143.84;49.66;45094.78;5099392;28;20438;-82
2023/01/01 05:01:57;;;;;;;4.37;4.03;;;;;;;-143.84;49.66;45119.53;5099425;28;20861;-82
2023/01/01 05:04:24;;;;;;;4.33;3.50;;;;;;;-143.84;49.40;45125.22;5098141;28;20438;-83
2023/01/01 05:06:51;;;;;;;4.67;4.17;;;;;;;-143.84;49.37;45098.56;5093073;28;20872;-82
2023/01/01 05:09:20;;;;;;;5.17;4.53;;;;;;;-143.84;49.23;45106.19;5093043;28;20433;-82
2023/01/01 05:11:47;;;;;;;4.63;4.23;;;;;;;-143.84;49.39;45104.28;5093086;28;20944;-82
2023/01/01 05:14:14;;;;;;;5.00;3.27;;;;;;;-143.84;49.67;45111.91;5092859;28;20491;-83
2023/01/01 05:16:41;;;;;;;5.27;4.53;;;;;;;-143.84;49.94;45106.19;5092377;28;20474;-83
2023/01/01 05:19:10;;;;;;;7.50;4.50;;;;;;;-143.84;50.11;45111.91;5092446;28;20443;-83
2023/01/01 05:21:39;;;;;;;4.40;4.00;;;;;;;-143.84;49.71;45098.56;5092665;28;20438;-83
2023/01/01 05:24:08;;;;;;;5.33;4.60;;;;;;;-143.84;49.92;45132.84;5092901;28;20461;-83
2023/01/01 05:26:39;;;;;;;4.83;4.20;;;;;;;-143.84;49.94;45121.44;5091392;28;20544;-82
2023/01/01 05:29:07;;;;;;;7.53;4.80;;;;;;;-143.84;50.11;45140.47;5090167;28;20520;-83
2023/01/01 05:31:35;;;;;;;4.87;4.40;;;;;;;-143.84;49.88;45129.03;5092485;28;20434;-83
2023/01/01 05:34:04;;;;;;;4.60;4.30;;;;;;;-143.84;49.65;45119.53;5092329;28;20440;-83
2023/01/01 05:36:37;;;;;;;6.00;4.00;;;;;;;-143.84;49.84;45117.63;5090797;28;20503;-83
2023/01/01 05:39:04;;;;;;;4.83;4.30;;;;;;;-143.84;50.00;45121.44;5090643;28;21014;-83
2023/01/01 05:41:34;;;;;;;4.80;4.10;;;;;;;-143.84;49.96;45129.03;5091711;28;20429;-83
2023/01/01 05:44:04;;;;;;;6.07;4.50;;;;;;;-143.84;49.98;45121.44;5093386;28;20501;-78
2023/01/01 05:46:32;;;;;;;5.53;4.17;;;;;;;-143.84;50.11;45100.47;5093308;28;20798;-81
2023/01/01 05:48:59;;;;;;;6.03;4.67;;;;;;;-143.84;49.57;45113.81;5092631;28;21282;-81
2023/01/01 05:51:29;;;;;;;5.77;3.53;;;;;;;-143.84;49.86;45100.47;5092851;28;20439;-81
2023/01/01 05:53:57;;;;;;;4.07;3.77;;;;;;;-143.84;49.71;45127.13;5092621;28;20484;-81
2023/01/01 05:56:24;;;;;;;10.17;4.20;;;;;;;-143.84;49.67;45083.34;5092406;28;20471;-81
2023/01/01 05:58:51;;;;;;;8.33;4.10;;;;;;;-143.84;49.79;45117.63;5092637;28;20442;-82
2023/01/01 06:01:22;;;;;;;5.10;3.90;;;;;;;-143.84;49.88;45094.78;5092649;28;20437;-81
2023/01/01 06:03:49;;;;;;;10.93;4.70;;;;;;;-143.84;49.94;45108.09;5092879;28;20521;-81
2023/01/01 06:06:18;;;;;;;4.83;4.10;;;;;;;-143.84;49.74;45094.78;5092257;28;20494;-81
2023/01/01 06:08:49;;;;;;;4.57;4.17;;;;;;;-143.84;49.63;45117.63;5092300;28;20863;-81
2023/01/01 06:11:16;;;;;;;6.97;4.10;;;;;;;-143.84;49.54;45098.56;5092092;28;20477;-81
2023/01/01 06:13:44;;;;;;;4.07;3.77;;;;;;;-143.84;49.26;45110.00;5092519;28;20432;-81
2023/01/01 06:16:11;;;;;;;4.47;4.10;;;;;;;-143.84;49.72;45157.59;5092140;28;20855;-81
2023/01/01 06:18:40;;;;;;;4.50;4.17;;;;;;;-143.84;49.49;45130.94;5092297;28;20435;-81
2023/01/01 06:21:09;;;;;;;4.67;4.27;;;;;;;-143.84;49.42;45111.91;5092348;28;20444;-81
2023/01/01 06:23:36;;;;;;;4.43;4.03;;;;;;;-143.84;49.46;45117.63;5092186;28;20927;-81
2023/01/01 06:26:08;;;;;;;4.70;4.30;;;;;;;-143.84;49.49;45115.72;5092335;28;20442;-81
2023/01/01 06:28:36;;;;;;;5.33;4.73;;;;;;;-143.84;49.46;45117.63;5096570;28;20891;-81
2023/01/01 06:31:04;;;;;;;5.50;4.13;;;;;;;-143.84;49.78;45121.44;5096352;28;20434;-81
2023/01/01 06:33:32;;;;;;;4.13;3.83;;;;;;;-143.84;49.19;45110.00;5096093;28;20439;-81
2023/01/01 06:36:02;;;;;;;4.53;3.90;;;;;;;-143.84;49.21;45117.63;5096458;28;20456;-82
2023/01/01 06:38:32;;;;;;;12.47;4.10;;;;;;;-143.84;49.43;45125.22;5096326;28;20418;-81
2023/01/01 06:41:00;;;;;;;4.60;4.17;;;;;;;-143.84;49.06;45115.72;5096037;28;20459;-81
2023/01/01 06:43:30;;;;;;;5.10;4.57;;;;;;;-143.84;48.79;45113.81;5096011;28;20434;-81
2023/01/01 06:46:02;;;;;;;3.67;3.47;;;;;;;-143.84;48.53;45110.00;5095860;28;20435;-82
2023/01/01 06:48:30;;;;;;;7.40;4.37;;;;;;;-143.84;48.14;45096.66;5096042;28;20428;-81
2023/01/01 06:50:57;;;;;;;6.23;4.07;;;;;;;-143.84;48.06;45092.88;5096339;28;20459;-81
2023/01/01 06:53:26;;;;;;;6.30;4.40;;;;;;;-143.84;47.66;45089.06;5095762;28;20430;-82
2023/01/01 06:55:53;;;;;;;4.20;3.87;;;;;;;-143.84;46.81;45077.63;5095969;28;20436;-82
2023/01/01 06:58:20;;;;;;;4.90;3.87;;;;;;;-143.84;46.83;45110.00;5095607;28;20445;-81
2023/01/01 07:00:48;;;;;;;4.10;3.77;;;;;;;-143.84;46.44;45100.47;5095600;28;20961;-82
2023/01/01 07:03:15;;;;;;;5.83;3.50;;;;;;;-143.84;46.08;45089.06;5096201;28;20798;-83
2023/01/01 07:05:42;;;;;;;4.43;4.03;;;;;;;-143.84;46.15;45092.88;5095636;28;20439;-84
2023/01/01 07:08:09;;;;;;;5.37;3.80;;;;;;;-143.84;45.80;45087.16;5095805;28;20436;-82
2023/01/01 07:10:37;;;;;;;4.13;3.80;;;;;;;-143.84;45.43;45085.25;5095655;28;20477;-81
2023/01/01 07:13:05;;;;;;;4.30;3.90;;;;;;;-143.84;44.91;45119.53;5095590;28;20440;-82
2023/01/01 07:15:32;;;;;;;9.23;3.70;;;;;;;-143.84;44.44;45113.81;5095511;28;20989;-82
2023/01/01 07:17:59;;;;;;;4.47;4.00;;;;;;;-143.84;43.90;45106.19;5095768;28;20475;-82
2023/01/01 07:20:26;;;;;;;4.97;3.80;;;;;;;-143.84;43.45;45092.88;5095765;28;20431;-82
2023/01/01 07:22:53;;;;;;;3.73;3.43;;;;;;;-143.84;43.64;45090.97;5095617;28;20433;-80
2023/01/01 07:25:21;;;;;;;5.80;3.60;;;;;;;-143.84;43.08;45106.19;5095316;28;20442;-82
2023/01/01 07:27:49;;;;;;;3.23;3.03;;;;;;;-143.84;42.79;45090.97;5095175;28;20444;-82
2023/01/01 07:30:16;;;;;;;3.40;3.10;;;;;;;-143.84;42.49;45090.97;5095008;28;20441;-82
2023/01/01 07:32:44;;;;;;;4.20;3.90;;;;;;;-143.84;42.06;45090.97;5095084;28;20484;-82
2023/01/01 07:35:11;;;;;;;4.87;4.03;;;;;;;-143.84;41.66;45083.34;5094990;28;20417;-82
2023/01/01 07:37:38;;;;;;;4.27;3.90;;;;;;;-143.84;41.48;45064.31;5094820;28;20540;-81
2023/01/01 07:40:07;;;;;;;4.33;3.60;;;;;;;-143.84;41.14;45071.91;5094512;28;20506;-81
2023/01/01 07:42:34;;;;;;;8.97;4.70;;;;;;;-143.84;40.97;45121.44;5095217;28;20430;-82
2023/01/01 07:45:02;;;;;;;5.40;3.60;;;;;;;-143.84;40.49;45098.56;5094643;28;20441;-82
2023/01/01 07:47:30;;;;;;;4.23;3.77;;;;;;;-143.84;40.77;45096.66;5095558;28;20439;-82
2023/01/01 07:49:57;;;;;;;3.50;3.20;;;;;;;-143.84;40.23;45071.91;5095022;28;20420;-82
2023/01/01 07:52:24;;;;;;;4.27;3.87;;;;;;;-143.84;39.65;45085.25;5094716;28;20477;-81
2023/01/01 07:54:52;;;;;;;13.37;4.10;;;;;;;-143.84;39.77;45090.97;5094652;28;20432;-80
2023/01/01 07:57:19;;;;;;;3.70;3.40;;;;;;;-143.84;39.06;45060.50;5094766;28;20532;-80
2023/01/01 07:59:46;;;;;;;4.53;4.13;;;;;;;-143.84;39.17;45073.81;5094747;28;20451;-80
2023/01/01 08:02:15;;;;;;;3.80;3.50;;;;;;;-143.84;39.00;45056.69;5095130;28;20420;-80
2023/01/01 08:04:42;;;;;;;2.80;2.60;;;;;;;-143.84;38.72;45050.97;5094968;28;20444;-81
2023/01/01 08:07:09;;;;;;;4.77;3.87;;;;;;;-143.84;38.30;45039.53;5094829;28;20447;-81
2023/01/01 08:09:36;;;;;;;7.30;3.20;;;;;;;-143.84;38.33;45077.63;5094205;28;20439;-81
2023/01/01 08:12:04;;;;;;;3.80;3.40;;;;;;;-143.84;37.73;45060.50;5094715;28;20424;-81
2023/01/01 08:14:31;;;;;;;4.67;3.30;;;;;;;-143.84;37.64;45052.88;5094935;28;20915;-80
2023/01/01 08:16:58;;;;;;;4.57;3.73;;;;;;;-143.84;37.71;45050.97;5094368;28;20897;-80
2023/01/01 08:19:27;;;;;;;4.63;4.13;;;;;;;-143.84;37.50;45045.25;5094366;28;20485;-80
2023/01/01 08:21:54;;;;;;;4.13;3.83;;;;;;;-143.84;37.35;45062.41;5094586;28;20436;-81
2023/01/01 08:24:21;;;;;;;3.33;3.13;;;;;;;-143.84;37.04;45041.44;5094464;28;20455;-80
2023/01/01 08:26:49;;;;;;;4.97;3.93;;;;;;;-143.84;37.08;45043.34;5094368;28;20454;-80
2023/01/01 08:29:17;;;;;;;3.70;3.40;;;;;;;-143.84;36.79;45056.69;5094398;28;20531;-80
2023/01/01 08:31:44;;;;;;;4.80;4.37;;;;;;;-143.84;36.93;45068.13;5094313;28;20420;-80
2023/01/01 08:34:11;;;;;;;4.83;3.67;;;;;;;-143.84;36.76;45070.00;5094180;28;20443;-80
2023/01/01 08:36:40;;;;;;;3.43;3.23;;;;;;;-143.84;36.54;45058.59;5094247;28;20475;-80
2023/01/01 08:39:08;;;;;;;7.63;4.07;;;;;;;-143.84;36.60;45047.16;5094006;28;20439;-80
2023/01/01 08:41:35;;;;;;;9.10;3.60;;;;;;;-143.84;36.50;45049.06;5093167;28;20496;-80
2023/01/01 08:44:03;;;;;;;4.07;3.70;;;;;;;-143.84;36.44;45043.34;5093579;28;20838;-81
2023/01/01 08:46:30;;;;;;;3.87;3.50;;;;;;;-143.84;36.36;45030.03;5091762;28;20440;-81
2023/01/01 08:48:57;;;;;;;5.23;3.63;;;;;;;-143.84;36.10;45022.41;5092511;28;20448;-81
2023/01/01 08:51:24;;;;;;;4.43;3.30;;;;;;;-143.84;36.33;45039.53;5092960;28;20435;-80
2023/01/01 08:53:53;;;;;;;5.23;3.47;;;;;;;-143.84;36.44;45043.34;5094273;28;20835;-80
2023/01/01 08:56:20;;;;;;;7.53;3.93;;;;;;;-143.84;36.10;45020.50;5093786;28;20497;-81
2023/01/01 08:58:47;;;;;;;4.60;3.97;;;;;;;-143.84;35.85;45060.50;5094008;28;20938;-81
2023/01/01 09:01:14;;;;;;;3.90;3.60;;;;;;;-143.84;35.71;45039.53;5093762;28;20439;-81
2023/01/01 09:03:41;;;;;;;4.63;3.73;;;;;;;-143.84;35.76;45054.78;5093487;28;20444;-81
2023/01/01 09:06:09;;;;;;;4.90;3.63;;;;;;;-143.84;35.65;45028.13;5093521;28;20497;-80
2023/01/01 09:08:36;;;;;;;4.40;4.10;;;;;;;-143.84;36.06;45066.22;5093442;28;20481;-80
2023/01/01 09:11:05;;;;;;;4.10;3.67;;;;;;;-143.84;35.44;45031.94;5093092;28;20989;-80
2023/01/01 09:13:34;;;;;;;4.20;3.40;;;;;;;-143.84;34.94;45033.84;5093497;28;20966;-80
2023/01/01 09:16:01;;;;;;;5.77;3.77;;;;;;;-143.84;35.00;45033.84;5093184;28;20440;-81
2023/01/01 09:18:28;;;;;;;5.20;3.90;;;;;;;-143.84;35.11;45068.13;5093665;28;20826;-81
2023/01/01 09:20:55;;;;;;;7.67;4.20;;;;;;;-143.84;35.16;45037.66;5093237;28;20428;-80
2023/01/01 09:23:22;;;;;;;4.87;3.80;;;;;;;-143.84;34.96;45016.69;5092911;28;21030;-81
2023/01/01 09:25:50;;;;;;;7.33;4.83;;;;;;;-143.84;34.91;45049.06;5093159;28;20442;-80
2023/01/01 09:28:18;;;;;;;4.10;3.80;;;;;;;-143.84;34.88;45030.03;5093281;28;20439;-80
2023/01/01 09:30:46;;;;;;;6.50;3.63;;;;;;;-143.84;34.79;45030.03;5093053;28;20950;-81
2023/01/01 09:33:13;;;;;;;4.87;3.87;;;;;;;-143.84;34.92;45035.75;5093000;28;20436;-80
2023/01/01 09:35:43;;;;;;;4.10;3.70;;;;;;;-143.84;34.88;45016.69;5093396;28;20877;-80
2023/01/01 09:38:10;;;;;;;4.43;3.50;;;;;;;-143.84;34.78;45030.03;5092689;28;21057;-80
2023/01/01 09:40:56;;;;;;;6.80;4.03;;;;;;;-143.84;35.28;45041.44;5092881;28;20431;-80
2023/01/01 09:43:38;;;;;;;5.53;3.33;;;;;;;-143.84;35.15;45030.03;5092715;28;20443;-80
2023/01/01 09:46:07;;;;;;;4.60;3.50;;;;;;;-143.84;34.89;45039.53;5093049;28;20440;-80
2023/01/01 09:48:38;;;;;;;3.67;3.03;;;;;;;-143.84;34.99;45047.16;5092853;28;20436;-80
2023/01/01 09:51:13;;;;;;;3.50;3.30;;;;;;;-143.84;34.86;45041.44;5092833;28;20432;-80
2023/01/01 09:53:45;;;;;;;4.07;3.63;;;;;;;-143.84;34.93;45026.22;5092489;28;20974;-85
2023/01/01 09:56:19;;;;;;;3.97;3.57;;;;;;;-143.84;34.70;45020.50;5092698;28;20937;-84
2023/01/01 09:58:47;;;;;;;7.07;3.43;;;;;;;-143.84;35.08;45020.50;5092319;28;20513;-84
2023/01/01 10:01:27;;;;;;;5.57;4.63;;;;;;;-143.84;35.19;45024.31;5092160;28;20432;-84
2023/01/01 10:03:59;;;;;;;3.90;3.60;;;;;;;-143.84;35.29;45016.69;5092188;28;20431;-85
2023/01/01 10:06:30;;;;;;;3.60;3.30;;;;;;;-143.84;34.96;45052.88;5092291;28;20848;-85
2023/01/01 10:09:08;;;;;;;3.90;3.20;;;;;;;-143.84;34.59;45005.28;5092584;28;20432;-84
2023/01/01 10:11:45;;;;;;;6.23;3.97;;;;;;;-143.84;35.40;45018.59;5091844;28;20491;-84
2023/01/01 10:14:24;;;;;;;3.60;3.30;;;;;;;-143.84;34.60;45020.50;5091838;28;20439;-84
2023/01/01 10:16:55;;;;;;;5.00;4.50;;;;;;;-143.84;35.05;45045.25;5092097;28;20847;-85
2023/01/01 10:19:30;;;;;;;4.50;4.10;;;;;;;-143.84;34.92;45012.88;5092114;28;20428;-85
2023/01/01 10:22:03;;;;;;;4.37;3.97;;;;;;;-143.84;34.56;45026.22;5091204;28;20481;-85
2023/01/01 10:24:43;;;;;;;4.57;4.17;;;;;;;-143.84;34.08;45016.69;5090390;28;20513;-85
2023/01/01 10:27:23;;;;;;;4.97;4.53;;;;;;;-143.84;34.48;45043.34;5092322;28;20510;-84
2023/01/01 10:29:53;;;;;;;4.40;4.00;;;;;;;-143.84;34.38;45037.66;5092262;28;20966;-85
2023/01/01 10:32:25;;;;;;;4.70;4.27;;;;;;;-143.84;34.50;45049.06;5091937;28;20447;-85
2023/01/01 10:34:53;;;;;;;5.57;5.00;;;;;;;-143.84;34.19;45024.31;5092012;28;20432;-84
2023/01/01 10:37:20;;;;;;;5.53;4.30;;;;;;;-143.84;34.25;45007.19;5091744;28;20482;-85
2023/01/01 10:39:49;;;;;;;6.03;4.33;;;;;;;-143.84;34.24;45024.31;5092270;28;20442;-85
2023/01/01 10:42:17;;;;;;;4.87;4.47;;;;;;;-143.84;34.28;45047.16;5091946;28;20428;-85
2023/01/01 10:44:44;;;;;;;4.87;4.37;;;;;;;-143.84;34.21;45028.13;5091961;28;20439;-85
2023/01/01 10:47:24;;;;;;;4.40;4.00;;;;;;;-143.84;33.91;45064.31;5091860;28;20447;-85
2023/01/01 10:49:56;;;;;;;3.90;3.60;;;;;;;-143.84;33.81;45028.13;5091820;28;20519;-85
2023/01/01 10:52:27;;;;;;;4.60;4.20;;;;;;;-143.84;33.97;45018.59;5091733;28;20947;-85
2023/01/01 10:54:55;;;;;;;5.87;4.27;;;;;;;-143.84;34.19;45009.09;5092131;28;20503;-84
2023/01/01 10:57:32;;;;;;;4.60;4.13;;;;;;;-143.84;33.89;45014.78;5091935;28;20475;-85
2023/01/01 11:00:23;;;;;;;5.20;4.70;;;;;;;-143.84;33.46;45030.03;5091978;28;20428;-85
2023/01/01 11:03:18;;;;;;;4.47;4.07;;;;;;;-143.84;33.86;45001.47;5091863;28;20461;-86
2023/01/01 11:06:01;;;;;;;4.70;4.30;;;;;;;-143.84;33.12;45014.78;5092036;28;20503;-86
2023/01/01 11:08:30;;;;;;;4.17;3.80;;;;;;;-143.84;33.27;45037.66;5091757;28;20495;-86
2023/01/01 11:10:59;;;;;;;6.00;3.57;;;;;;;-143.84;33.43;45043.34;5091295;28;20483;-85
2023/01/01 11:13:27;;;;;;;8.80;4.50;;;;;;;-143.84;33.27;45033.84;5092211;28;20435;-85
2023/01/01 11:15:55;;;;;;;4.37;3.97;;;;;;;-143.84;33.83;45007.19;5095341;28;20432;-85
2023/01/01 11:18:34;;;;;;;5.03;4.07;;;;;;;-143.84;33.37;45043.34;5095603;28;20894;-84
2023/01/01 11:21:03;;;;;;;6.23;4.47;;;;;;;-143.84;33.79;45014.78;5095130;28;20447;-84
2023/01/01 11:23:32;;;;;;;5.33;4.83;;;;;;;-143.84;33.63;45035.75;5095495;28;20432;-84
2023/01/01 11:26:03;;;;;;;4.13;3.60;;;;;;;-143.84;33.85;45003.38;5095257;28;20433;-84
2023/01/01 11:28:33;;;;;;;5.00;4.60;;;;;;;-143.84;34.45;45035.75;5095519;28;20434;-84
2023/01/01 11:31:17;;;;;;;4.57;4.17;;;;;;;-143.84;33.71;45016.69;5095261;28;20436;-84
2023/01/01 11:33:49;;;;;;;7.37;5.00;;;;;;;-143.84;33.68;44997.66;5095435;28;20428;-85
2023/01/01 11:36:24;;;;;;;7.43;6.63;;;;;;;-143.84;34.59;45026.22;5095033;28;20549;-87